Time;durP1;ratioP1;P1;durP2;ratioP2;P2;SDS_P1;SDS_P2;PMS_P1;PMS_P2;Temp;Humidity;BMP_temperature;BMP_pressure;BME280_temperature;BME280_humidity;BME280_pressure;Samples;Min_cycle;Max_cycle;Signal;HPM_P1;HPM_P2
2021/12/05 00:20:25;;;;;;;89.35;67.68;;;-0.70;99.90;;;;;;5083411;28;20084;-85
2021/12/05 00:22:48;;;;;;;95.78;55.40;;;-0.60;99.90;;;;;;5075905;28;20029;-85
2021/12/05 00:25:26;;;;;;;92.60;55.67;;;-0.60;99.90;;;;;;5080655;28;20395;-84
2021/12/05 00:28:12;;;;;;;93.30;53.22;;;-0.70;99.90;;;;;;5078115;28;20062;-85
2021/12/05 00:44:22;;;;;;;77.88;49.30;;;-0.60;99.90;;;;;;5100515;28;20024;-84
2021/12/05 00:46:56;;;;;;;81.50;52.03;;;-0.60;99.90;;;;;;5110925;28;20053;-84
2021/12/05 01:15:07;;;;;;;87.65;56.50;;;-0.60;98.80;;;;;;5074987;28;20035;-85
2021/12/05 01:18:01;;;;;;;93.72;59.17;;;-0.60;98.90;;;;;;5084856;28;20569;-85
2021/12/05 01:20:31;;;;;;;86.13;54.72;;;-0.60;98.70;;;;;;5057767;28;20036;-85
2021/12/05 01:23:09;;;;;;;89.32;55.70;;;-0.60;98.80;;;;;;5073124;28;20077;-83
2021/12/05 01:33:19;;;;;;;81.38;50.33;;;-0.70;97.80;;;;;;5074865;28;20027;-85
2021/12/05 01:38:36;;;;;;;91.53;54.97;;;-0.80;98.20;;;;;;5081598;28;20055;-86
2021/12/05 01:46:49;;;;;;;90.32;52.10;;;-1.00;98.20;;;;;;5075132;28;20073;-86
2021/12/05 01:57:11;;;;;;;113.60;71.63;;;-1.20;99.90;;;;;;5085074;28;20024;-84
2021/12/05 02:08:05;;;;;;;120.28;74.45;;;-1.40;99.90;;;;;;5093054;28;20058;-84
2021/12/05 02:34:49;;;;;;;234.48;131.60;;;-1.80;99.80;;;;;;5082133;28;20040;-85
2021/12/05 02:37:35;;;;;;;313.77;168.43;;;-1.60;99.90;;;;;;5081813;28;20024;-88
2021/12/05 02:42:57;;;;;;;286.63;139.20;;;-1.50;99.30;;;;;;5074127;28;20050;-88
2021/12/05 02:45:23;;;;;;;327.10;155.68;;;-1.60;99.60;;;;;;5073002;28;20074;-84
2021/12/05 02:47:52;;;;;;;217.80;120.90;;;-1.60;99.30;;;;;;5085301;28;20033;-89
2021/12/05 02:50:21;;;;;;;188.35;111.28;;;-1.60;99.70;;;;;;5056374;28;20123;-85
2021/12/05 02:52:47;;;;;;;156.60;100.03;;;-1.60;98.70;;;;;;5072552;28;20055;-84
2021/12/05 02:55:27;;;;;;;148.25;95.72;;;-1.70;97.70;;;;;;5060439;28;20122;-84
2021/12/05 02:57:58;;;;;;;146.73;98.93;;;-1.80;97.20;;;;;;5056832;28;20043;-84
2021/12/05 03:00:44;;;;;;;152.57;105.53;;;-1.90;97.40;;;;;;5056369;28;20394;-85
2021/12/05 03:03:22;;;;;;;159.75;107.60;;;-1.90;97.80;;;;;;5073983;28;20020;-84
2021/12/05 03:05:59;;;;;;;167.10;102.57;;;-2.00;97.70;;;;;;5072104;28;20098;-87
2021/12/05 03:08:25;;;;;;;199.07;110.18;;;-2.00;97.90;;;;;;5057165;28;20553;-83
2021/12/05 03:10:52;;;;;;;219.55;119.95;;;-2.00;98.00;;;;;;5074998;28;20032;-85
2021/12/05 03:13:19;;;;;;;261.30;157.40;;;-2.10;98.20;;;;;;5094629;28;20039;-85
2021/12/05 03:15:45;;;;;;;589.38;262.33;;;-2.00;98.70;;;;;;5079729;28;20039;-88
2021/12/05 03:18:10;;;;;;;619.92;277.88;;;-2.00;98.50;;;;;;5098781;28;20040;-84
2021/12/05 03:20:36;;;;;;;519.45;254.07;;;-2.20;98.50;;;;;;5096443;28;20024;-83
2021/12/05 03:23:02;;;;;;;361.23;168.85;;;-2.30;98.60;;;;;;5097770;28;20024;-84
2021/12/05 03:25:28;;;;;;;249.45;134.18;;;-2.40;99.30;;;;;;5115347;28;20050;-84
2021/12/05 03:27:55;;;;;;;225.25;131.27;;;-2.30;99.10;;;;;;5115193;28;20039;-84
2021/12/05 03:30:24;;;;;;;216.05;117.60;;;-2.30;98.40;;;;;;5079827;28;20102;-86
2021/12/05 03:32:52;;;;;;;341.90;125.90;;;-2.30;97.90;;;;;;5095978;28;20028;-86
2021/12/05 03:35:20;;;;;;;171.25;96.90;;;-2.30;98.20;;;;;;5069498;28;20028;-87
2021/12/05 03:37:49;;;;;;;202.48;112.68;;;-2.30;99.90;;;;;;5058953;28;20421;-86
2021/12/05 03:40:17;;;;;;;209.45;113.25;;;-2.10;99.90;;;;;;5076754;28;20084;-86
2021/12/05 03:42:43;;;;;;;465.70;123.65;;;-2.00;99.90;;;;;;5075611;28;20119;-85
2021/12/05 03:45:15;;;;;;;318.90;113.75;;;-1.90;99.90;;;;;;5075494;28;20064;-86
2021/12/05 03:47:40;;;;;;;369.33;106.10;;;-1.90;99.90;;;;;;5077586;28;20479;-84
2021/12/05 03:50:10;;;;;;;369.65;135.55;;;-1.80;99.90;;;;;;5078820;28;20020;-86
2021/12/05 03:52:36;;;;;;;232.80;106.85;;;-1.80;99.90;;;;;;5078594;28;20024;-85
2021/12/05 03:55:04;;;;;;;233.30;94.00;;;-1.80;99.90;;;;;;5086779;28;20024;-84
2021/12/05 03:57:30;;;;;;;226.77;91.68;;;-1.80;99.90;;;;;;5092297;28;20035;-84
2021/12/05 03:59:56;;;;;;;242.70;91.80;;;-1.70;99.90;;;;;;5097098;28;20023;-83
2021/12/05 04:02:22;;;;;;;293.02;88.82;;;-1.60;99.90;;;;;;5095017;28;20028;-83
2021/12/05 04:04:49;;;;;;;265.70;83.32;;;-1.60;99.90;;;;;;5078003;28;20036;-83
2021/12/05 04:07:16;;;;;;;616.90;149.15;;;-1.50;99.90;;;;;;5096666;28;20040;-84
2021/12/05 04:09:43;;;;;;;243.63;76.90;;;-1.50;99.90;;;;;;5078498;28;20081;-85
2021/12/05 04:12:09;;;;;;;369.25;89.70;;;-1.50;99.90;;;;;;5097180;28;20024;-86
2021/12/05 04:14:40;;;;;;;286.55;82.03;;;-1.40;99.90;;;;;;5079992;28;20393;-85
2021/12/05 04:17:07;;;;;;;310.27;87.97;;;-1.30;99.90;;;;;;5084349;28;20035;-86
2021/12/05 04:19:34;;;;;;;278.98;70.43;;;-1.20;99.90;;;;;;5114180;28;20028;-85
2021/12/05 04:22:01;;;;;;;302.15;79.22;;;-1.10;99.90;;;;;;5087117;28;20020;-85
2021/12/05 04:24:27;;;;;;;390.88;74.55;;;-1.00;99.90;;;;;;5077763;28;20389;-85
2021/12/05 04:26:52;;;;;;;376.15;78.80;;;-0.90;99.90;;;;;;5078221;28;20028;-86
2021/12/05 04:29:18;;;;;;;335.73;66.15;;;-0.80;99.90;;;;;;5096713;28;20035;-84
2021/12/05 04:31:45;;;;;;;385.20;60.33;;;-0.80;99.90;;;;;;5077695;28;20477;-88
2021/12/05 04:34:12;;;;;;;277.15;53.55;;;-0.70;99.90;;;;;;5077907;28;20028;-86
2021/12/05 04:36:39;;;;;;;386.27;60.83;;;-0.70;99.90;;;;;;5096154;28;20025;-86
2021/12/05 04:39:05;;;;;;;268.52;52.28;;;-0.60;99.90;;;;;;5095985;28;20074;-86
2021/12/05 04:41:32;;;;;;;260.13;51.05;;;-0.50;99.90;;;;;;5079104;28;20446;-87
2021/12/05 04:44:00;;;;;;;171.10;46.78;;;-0.50;99.90;;;;;;5077660;28;20042;-88
2021/12/05 04:46:26;;;;;;;115.80;45.38;;;-0.40;99.90;;;;;;5077393;28;20024;-85
2021/12/05 04:48:54;;;;;;;117.38;46.30;;;-0.30;99.90;;;;;;5094482;28;20051;-87
2021/12/05 04:51:27;;;;;;;126.78;50.88;;;-0.30;99.90;;;;;;5094399;28;20035;-87
2021/12/05 04:53:54;;;;;;;124.35;54.78;;;-0.20;99.90;;;;;;5094396;28;20486;-85
2021/12/05 04:56:21;;;;;;;119.13;61.08;;;-0.20;99.90;;;;;;5094148;28;20024;-86
2021/12/05 04:58:47;;;;;;;125.97;59.85;;;-0.20;99.90;;;;;;5075889;28;20055;-86
2021/12/05 05:01:13;;;;;;;121.20;62.38;;;-0.20;99.90;;;;;;5086638;28;20020;-87
2021/12/05 05:03:38;;;;;;;103.30;56.03;;;-0.20;99.90;;;;;;5057555;28;20024;-80
2021/12/05 05:06:11;;;;;;;109.28;60.28;;;-0.10;99.90;;;;;;5075415;28;20039;-80
2021/12/05 05:08:37;;;;;;;101.07;58.95;;;-0.10;99.90;;;;;;5057636;28;20025;-82
2021/12/05 05:11:06;;;;;;;102.47;58.85;;;-0.10;99.90;;;;;;5071034;28;20016;-80
2021/12/05 05:13:32;;;;;;;85.47;53.22;;;0.00;99.90;;;;;;5085751;28;20028;-82
2021/12/05 05:15:58;;;;;;;85.15;50.58;;;0.00;99.90;;;;;;5083491;28;20025;-79
2021/12/05 05:18:29;;;;;;;76.93;47.92;;;0.10;99.90;;;;;;5076251;28;20040;-80
2021/12/05 05:21:10;;;;;;;74.45;48.70;;;0.20;99.90;;;;;;5077314;28;20469;-81
2021/12/05 05:26:32;;;;;;;56.85;40.85;;;0.20;99.90;;;;;;5093155;28;20122;-82
2021/12/05 05:45:21;;;;;;;50.17;36.75;;;0.30;99.90;;;;;;5074691;28;20090;-82
2021/12/05 05:50:14;;;;;;;65.13;44.20;;;0.30;99.90;;;;;;5086353;28;20572;-82
2021/12/05 05:52:40;;;;;;;78.53;51.00;;;0.40;99.90;;;;;;5079531;28;20032;-81
2021/12/05 05:55:06;;;;;;;57.58;38.42;;;0.40;99.90;;;;;;5073129;28;20043;-82
2021/12/05 05:57:48;;;;;;;55.63;36.42;;;0.30;99.90;;;;;;5092980;28;20123;-81
2021/12/05 06:00:38;;;;;;;56.33;37.45;;;0.40;99.90;;;;;;5082782;28;20386;-83
2021/12/05 06:03:22;;;;;;;50.25;33.38;;;0.30;99.90;;;;;;5083330;28;20024;-80
2021/12/05 06:06:09;;;;;;;53.45;34.63;;;0.30;99.90;;;;;;5084752;28;20028;-81
2021/12/05 06:08:37;;;;;;;53.80;33.85;;;0.40;99.90;;;;;;5070123;28;20032;-80
2021/12/05 06:11:10;;;;;;;52.47;32.83;;;0.30;99.90;;;;;;5074023;28;20032;-80
2021/12/05 06:13:37;;;;;;;65.22;40.78;;;0.30;99.60;;;;;;5071452;28;20017;-79
2021/12/05 06:16:04;;;;;;;64.88;39.30;;;0.30;99.40;;;;;;5073663;28;20031;-80
2021/12/05 06:18:30;;;;;;;55.08;35.28;;;0.30;99.40;;;;;;5077123;28;20440;-80
2021/12/05 06:20:56;;;;;;;46.65;31.10;;;0.20;99.20;;;;;;5091739;28;20028;-81
2021/12/05 06:23:22;;;;;;;65.65;40.22;;;0.30;99.50;;;;;;5082835;28;20032;-81
2021/12/05 06:25:50;;;;;;;67.10;42.80;;;0.30;99.30;;;;;;5068904;28;20035;-80
2021/12/05 06:28:18;;;;;;;37.97;24.05;;;0.30;99.30;;;;;;5074267;28;20045;-82
2021/12/05 06:46:31;;;;;;;82.18;32.28;;;-0.40;99.40;;;;;;5084188;28;20044;-82
2021/12/05 06:48:57;;;;;;;106.90;32.80;;;-0.50;99.10;;;;;;5080751;28;20025;-83
2021/12/05 06:51:26;;;;;;;75.03;27.70;;;-0.60;99.40;;;;;;5079591;28;20028;-80
2021/12/05 06:53:56;;;;;;;50.42;21.63;;;-0.70;99.50;;;;;;5099765;28;20466;-82
2021/12/05 06:56:22;;;;;;;45.08;23.80;;;-0.80;99.50;;;;;;5079093;28;20052;-82
2021/12/05 06:58:48;;;;;;;66.20;24.75;;;-0.90;99.90;;;;;;5087259;28;20025;-81
2021/12/05 07:01:15;;;;;;;62.33;23.98;;;-0.90;99.90;;;;;;5077596;28;20047;-82
2021/12/05 07:03:44;;;;;;;70.20;25.98;;;-0.90;99.90;;;;;;5089815;28;20047;-82
2021/12/05 07:06:19;;;;;;;56.13;27.25;;;-0.90;99.90;;;;;;5071824;28;20395;-82
2021/12/05 07:08:45;;;;;;;69.00;26.75;;;-0.80;99.90;;;;;;5085072;28;20027;-83
2021/12/05 07:11:21;;;;;;;50.97;26.75;;;-0.70;99.90;;;;;;5065585;28;20124;-81
2021/12/05 07:16:51;;;;;;;86.70;50.05;;;-0.50;99.90;;;;;;5083703;28;19957;-84
2021/12/05 07:22:17;;;;;;;46.25;26.40;;;-0.40;99.90;;;;;;5086866;28;20043;-81
2021/12/05 07:40:31;;;;;;;90.63;48.88;;;-0.60;99.90;;;;;;5076743;28;20043;-82
2021/12/05 07:43:07;;;;;;;72.90;40.75;;;-0.60;99.90;;;;;;5076353;28;20059;-82
2021/12/05 07:45:41;;;;;;;84.25;40.88;;;-0.50;99.90;;;;;;5081331;28;20141;-82
2021/12/05 07:48:14;;;;;;;66.57;36.92;;;-0.50;99.90;;;;;;5090325;28;20036;-81
2021/12/05 07:50:52;;;;;;;68.80;35.72;;;-0.30;99.90;;;;;;5100427;28;20471;-81
2021/12/05 07:53:34;;;;;;;63.35;34.85;;;-0.30;99.90;;;;;;5092268;28;20027;-82
2021/12/05 07:56:08;;;;;;;61.90;35.30;;;-0.20;99.90;;;;;;5088723;28;20024;-82
2021/12/05 07:58:54;;;;;;;80.93;39.80;;;-0.20;99.90;;;;;;5077164;28;20038;-82
2021/12/05 08:14:55;;;;;;;79.95;33.70;;;-0.20;99.50;;;;;;5095636;28;20055;-78
2021/12/05 08:17:21;;;;;;;104.25;42.28;;;-0.20;99.90;;;;;;5077763;28;20031;-78
2021/12/05 08:19:47;;;;;;;60.20;31.48;;;-0.20;99.40;;;;;;5096051;28;20075;-79
2021/12/05 08:22:14;;;;;;;62.35;28.13;;;-0.20;99.80;;;;;;5096276;28;20393;-79
2021/12/05 08:24:41;;;;;;;44.60;25.50;;;-0.10;98.10;;;;;;5077029;28;20032;-74
2021/12/05 08:27:10;;;;;;;50.63;24.45;;;-0.20;97.20;;;;;;5075651;28;20035;-79
2021/12/05 08:32:26;;;;;;;55.50;27.63;;;-0.50;97.40;;;;;;5078910;28;20036;-79
2021/12/05 08:35:11;;;;;;;44.13;24.77;;;-0.60;98.20;;;;;;5058742;28;20029;-79
2021/12/05 09:23:56;;;;;;;43.42;28.02;;;0.10;93.00;;;;;;5087021;28;20036;-72
2021/12/05 09:26:43;;;;;;;38.25;24.83;;;0.20;93.10;;;;;;5084257;28;20029;-73
2021/12/05 09:40:27;;;;;;;34.72;25.92;;;0.00;91.80;;;;;;5080355;28;20058;-73
2021/12/05 10:07:04;;;;;;;30.75;22.30;;;0.10;92.00;;;;;;5087062;28;20063;-75
2021/12/05 10:15:35;;;;;;;25.35;16.25;;;0.10;90.70;;;;;;5084989;28;20194;-73
2021/12/05 10:35:34;;;;;;;30.20;22.85;;;0.60;89.10;;;;;;5080335;28;20512;-72
2021/12/05 10:38:04;;;;;;;44.60;29.52;;;0.70;89.00;;;;;;5069245;28;20044;-72
2021/12/05 10:40:41;;;;;;;46.42;30.33;;;0.90;88.90;;;;;;5083428;28;20024;-72
2021/12/05 10:43:14;;;;;;;76.88;52.28;;;1.10;87.80;;;;;;5068491;28;20029;-71
2021/12/05 10:45:44;;;;;;;37.22;26.17;;;1.00;86.00;;;;;;5060614;28;20115;-72
2021/12/05 10:48:20;;;;;;;37.30;27.13;;;1.00;86.10;;;;;;5055248;28;20372;-72
2021/12/05 10:50:47;;;;;;;85.38;51.83;;;1.00;85.70;;;;;;5072835;28;20024;-72
2021/12/05 10:53:27;;;;;;;70.32;44.78;;;1.00;86.20;;;;;;5058058;28;20110;-72
2021/12/05 10:56:20;;;;;;;44.83;31.00;;;1.00;86.20;;;;;;5083356;28;20031;-71
2021/12/05 10:59:08;;;;;;;42.60;24.98;;;1.10;86.30;;;;;;5076344;28;20463;-71
2021/12/05 11:01:52;;;;;;;43.00;28.02;;;1.10;86.10;;;;;;5057506;28;20124;-70
2021/12/05 11:04:46;;;;;;;22.77;17.08;;;1.10;85.70;;;;;;5080038;28;20025;-70
2021/12/05 11:07:16;;;;;;;26.88;18.35;;;1.10;84.90;;;;;;5073580;28;20042;-70
2021/12/05 11:09:48;;;;;;;24.95;17.80;;;1.00;85.00;;;;;;5072841;28;20047;-70
2021/12/05 11:12:18;;;;;;;27.05;19.02;;;0.90;84.50;;;;;;5086858;28;20032;-69
2021/12/05 11:14:49;;;;;;;22.83;16.67;;;0.90;85.20;;;;;;5087325;28;20509;-70
2021/12/05 11:17:18;;;;;;;34.90;22.08;;;0.90;85.70;;;;;;5075306;28;20032;-70
2021/12/05 11:19:46;;;;;;;35.65;23.52;;;0.90;85.30;;;;;;5068837;28;20109;-70
2021/12/05 11:22:18;;;;;;;22.38;15.88;;;0.80;85.10;;;;;;5072936;28;20032;-70
2021/12/05 11:24:52;;;;;;;34.33;22.00;;;0.70;85.10;;;;;;5068601;28;20063;-69
2021/12/05 11:27:40;;;;;;;64.93;39.78;;;0.60;85.00;;;;;;5072932;28;20032;-69
2021/12/05 11:30:14;;;;;;;33.58;20.73;;;0.50;85.20;;;;;;5075523;28;20028;-73
2021/12/05 11:33:00;;;;;;;32.47;18.90;;;0.40;85.70;;;;;;5070924;28;20038;-70
2021/12/05 11:35:39;;;;;;;47.97;23.77;;;0.40;85.20;;;;;;5076303;28;20028;-71
2021/12/05 11:38:17;;;;;;;24.85;16.42;;;0.30;85.40;;;;;;5071606;28;20082;-72
2021/12/05 11:40:42;;;;;;;45.72;29.45;;;0.20;85.60;;;;;;5068237;28;20039;-71
2021/12/05 11:43:10;;;;;;;30.17;17.52;;;0.20;86.10;;;;;;5078686;28;20108;-70
2021/12/05 11:46:11;;;;;;;23.13;15.85;;;0.20;86.90;;;;;;5076481;28;20082;-70
2021/12/05 11:48:48;;;;;;;85.72;47.60;;;0.20;87.60;;;;;;5052797;28;20448;-71
2021/12/05 11:51:48;;;;;;;60.55;50.10;;;0.20;88.50;;;;;;5076011;28;20545;-71
2021/12/05 11:54:21;;;;;;;35.65;29.95;;;0.30;88.60;;;;;;5086729;28;20036;-70
2021/12/05 11:57:11;;;;;;;33.05;22.58;;;0.30;88.00;;;;;;5076237;28;20557;-71
2021/12/05 11:59:49;;;;;;;35.33;22.80;;;0.30;87.40;;;;;;5077167;28;20085;-71
2021/12/05 12:02:38;;;;;;;33.47;22.92;;;0.30;88.40;;;;;;5075893;28;20040;-72
2021/12/05 12:05:14;;;;;;;41.13;26.70;;;0.30;88.60;;;;;;5078091;28;20028;-71
2021/12/05 12:08:07;;;;;;;36.95;24.77;;;0.40;88.90;;;;;;5080105;28;20032;-71
2021/12/05 12:10:43;;;;;;;27.52;19.83;;;0.50;88.60;;;;;;5066632;28;20039;-71
2021/12/05 12:13:15;;;;;;;24.17;17.52;;;0.60;88.40;;;;;;5088768;28;20020;-71
2021/12/05 12:15:43;;;;;;;22.20;17.35;;;0.60;88.40;;;;;;5066227;28;20043;-71
2021/12/05 12:18:22;;;;;;;21.45;16.10;;;0.60;88.30;;;;;;5061405;28;20116;-71
2021/12/05 12:20:48;;;;;;;17.15;13.18;;;0.60;88.20;;;;;;5067803;28;20077;-71
2021/12/05 12:23:18;;;;;;;37.85;27.05;;;0.60;87.60;;;;;;5077787;28;20028;-71
2021/12/05 12:25:47;;;;;;;31.45;21.33;;;0.50;87.40;;;;;;5096087;28;20406;-70
2021/12/05 12:28:13;;;;;;;42.75;30.55;;;0.40;87.10;;;;;;5095643;28;20032;-70
2021/12/05 12:30:42;;;;;;;20.38;14.95;;;0.30;87.80;;;;;;5077480;28;20031;-71
2021/12/05 12:33:42;;;;;;;26.50;19.02;;;0.30;88.10;;;;;;5095404;28;20035;-71
2021/12/05 12:36:08;;;;;;;27.85;19.45;;;0.40;88.60;;;;;;5083763;28;20077;-72
2021/12/05 12:38:39;;;;;;;31.88;21.85;;;0.40;89.40;;;;;;5077441;28;20047;-71
2021/12/05 12:41:20;;;;;;;35.55;24.33;;;0.30;88.60;;;;;;5095843;28;20388;-71
2021/12/05 12:43:58;;;;;;;34.83;25.67;;;0.30;88.50;;;;;;5077329;28;20035;-71
2021/12/05 12:46:44;;;;;;;48.50;34.90;;;0.20;89.10;;;;;;5094772;28;20198;-71
2021/12/05 12:49:16;;;;;;;29.17;20.35;;;0.20;89.70;;;;;;5078505;28;20100;-71
2021/12/05 12:51:50;;;;;;;24.80;17.58;;;0.10;90.10;;;;;;5095551;28;20347;-71
2021/12/05 12:54:24;;;;;;;22.20;16.83;;;0.20;90.00;;;;;;5082704;28;20031;-71
2021/12/05 12:57:04;;;;;;;31.98;20.88;;;0.10;90.10;;;;;;5086671;28;20032;-70
2021/12/05 12:59:34;;;;;;;21.80;15.05;;;0.10;90.30;;;;;;5098203;28;20020;-70
2021/12/05 13:05:02;;;;;;;24.60;18.20;;;0.10;90.50;;;;;;5075774;28;20382;-71
2021/12/05 13:10:27;;;;;;;42.92;27.98;;;0.10;90.90;;;;;;5085173;28;20058;-71
2021/12/05 13:13:26;;;;;;;23.17;17.67;;;0.10;91.20;;;;;;5093768;28;20024;-71
2021/12/05 13:16:00;;;;;;;27.25;20.33;;;0.20;91.10;;;;;;5076874;28;20117;-71
2021/12/05 13:18:29;;;;;;;30.48;20.90;;;0.20;91.00;;;;;;5076844;28;20447;-71
2021/12/05 13:21:02;;;;;;;29.27;21.13;;;0.20;90.90;;;;;;5093450;28;20527;-71
2021/12/05 13:23:32;;;;;;;30.67;23.23;;;0.10;90.80;;;;;;5093876;28;20100;-71
2021/12/05 13:26:14;;;;;;;36.80;26.13;;;0.20;91.00;;;;;;5076603;28;20530;-71
2021/12/05 13:28:43;;;;;;;31.48;23.48;;;0.10;91.10;;;;;;5093566;28;20050;-70
2021/12/05 13:31:35;;;;;;;25.38;19.42;;;0.20;91.50;;;;;;5093316;28;20138;-71
2021/12/05 13:34:16;;;;;;;29.35;21.02;;;0.20;91.30;;;;;;5057400;28;20575;-70
2021/12/05 13:36:49;;;;;;;29.98;21.23;;;0.20;91.40;;;;;;5094368;28;20017;-70
2021/12/05 13:39:33;;;;;;;33.80;23.83;;;0.20;91.40;;;;;;5093499;28;20537;-70
2021/12/05 13:42:03;;;;;;;27.45;20.27;;;0.20;91.60;;;;;;5093869;28;20089;-71
2021/12/05 13:44:56;;;;;;;28.13;21.63;;;0.30;91.50;;;;;;5093117;28;20028;-71
2021/12/05 13:47:28;;;;;;;36.42;26.10;;;0.20;91.40;;;;;;5087813;28;20036;-70
2021/12/05 13:49:56;;;;;;;34.55;25.30;;;0.20;91.70;;;;;;5083457;28;20430;-71
2021/12/05 13:52:37;;;;;;;25.58;19.45;;;0.20;91.60;;;;;;5101641;28;20416;-70
2021/12/05 13:55:30;;;;;;;23.95;18.00;;;0.20;91.60;;;;;;5077403;28;20032;-70
2021/12/05 13:58:40;;;;;;;25.20;19.13;;;0.20;91.60;;;;;;5074736;28;20035;-70
2021/12/05 14:01:10;;;;;;;45.05;28.23;;;0.20;91.80;;;;;;5090867;28;20024;-70
2021/12/05 14:03:51;;;;;;;40.55;28.75;;;0.20;92.40;;;;;;5092936;28;20059;-71
2021/12/05 14:06:57;;;;;;;41.00;28.83;;;0.20;92.50;;;;;;5094126;28;20032;-71
2021/12/05 14:09:25;;;;;;;30.52;24.05;;;0.30;92.10;;;;;;5093262;28;20074;-71
2021/12/05 14:11:57;;;;;;;31.27;23.85;;;0.30;91.80;;;;;;5093046;28;20393;-71
2021/12/05 14:14:34;;;;;;;28.98;22.08;;;0.30;91.90;;;;;;5093046;28;20027;-71
2021/12/05 14:17:02;;;;;;;23.02;17.30;;;0.30;91.90;;;;;;5086055;28;20025;-70
2021/12/05 14:19:32;;;;;;;34.65;26.10;;;0.30;91.60;;;;;;5055995;28;20105;-70
2021/12/05 14:22:01;;;;;;;25.50;18.92;;;0.30;91.50;;;;;;5056083;28;20029;-70
2021/12/05 14:24:30;;;;;;;36.83;24.75;;;0.20;91.30;;;;;;5083880;28;20032;-70
2021/12/05 14:27:03;;;;;;;34.20;24.77;;;0.20;91.60;;;;;;5075400;28;20547;-70
2021/12/05 14:29:33;;;;;;;31.52;23.20;;;0.20;91.80;;;;;;5082132;28;20028;-70
2021/12/05 14:32:06;;;;;;;29.83;23.40;;;0.20;92.10;;;;;;5093655;28;20023;-70
2021/12/05 14:34:32;;;;;;;36.47;26.77;;;0.20;92.50;;;;;;5076278;28;20547;-70
2021/12/05 14:37:03;;;;;;;37.97;27.05;;;0.20;92.40;;;;;;5094116;28;20401;-69
2021/12/05 14:39:33;;;;;;;58.67;33.25;;;0.30;92.50;;;;;;5081037;28;20039;-70
2021/12/05 14:42:04;;;;;;;38.25;28.33;;;0.40;92.50;;;;;;5081395;28;20024;-71
2021/12/05 14:44:31;;;;;;;107.18;52.90;;;0.40;92.30;;;;;;5082513;28;20108;-70
2021/12/05 14:47:01;;;;;;;66.82;40.92;;;0.40;92.30;;;;;;5077211;28;20052;-70
2021/12/05 14:49:31;;;;;;;56.78;36.53;;;0.40;92.40;;;;;;5073549;28;20024;-70
2021/12/05 14:51:58;;;;;;;39.75;29.17;;;0.50;92.40;;;;;;5059572;28;20460;-71
2021/12/05 14:54:32;;;;;;;38.45;29.33;;;0.50;92.30;;;;;;5084396;28;20491;-70
2021/12/05 14:56:59;;;;;;;33.67;25.55;;;0.50;92.40;;;;;;5071254;28;20424;-72
2021/12/05 14:59:25;;;;;;;27.70;22.27;;;0.60;92.50;;;;;;5092835;28;20028;-70
2021/12/05 15:01:55;;;;;;;27.75;21.85;;;0.60;92.20;;;;;;5094138;28;20032;-71
2021/12/05 15:04:25;;;;;;;27.38;21.02;;;0.60;91.90;;;;;;5087956;28;20104;-69
2021/12/05 15:06:51;;;;;;;28.27;22.08;;;0.60;91.90;;;;;;5073901;28;20028;-76
2021/12/05 15:09:22;;;;;;;29.92;22.58;;;0.60;92.10;;;;;;5063914;28;20028;-70
2021/12/05 15:11:57;;;;;;;31.45;23.95;;;0.60;91.90;;;;;;5078388;28;20493;-71
2021/12/05 15:14:23;;;;;;;46.05;32.83;;;0.60;92.00;;;;;;5079253;28;20028;-72
2021/12/05 15:17:01;;;;;;;33.03;24.45;;;0.60;92.00;;;;;;5096059;28;20496;-72
2021/12/05 15:19:28;;;;;;;37.03;26.58;;;0.60;91.90;;;;;;5096224;28;20371;-64
2021/12/05 15:21:54;;;;;;;37.15;27.63;;;0.60;92.10;;;;;;5097725;28;20028;-72
2021/12/05 15:24:25;;;;;;;42.13;30.00;;;0.70;92.20;;;;;;5096579;28;20035;-76
2021/12/05 15:26:52;;;;;;;55.38;35.30;;;0.70;92.20;;;;;;5092053;28;20042;-72
2021/12/05 15:29:17;;;;;;;41.83;31.80;;;0.80;92.00;;;;;;5068686;28;20473;-75
2021/12/05 15:31:43;;;;;;;30.05;23.88;;;0.80;92.10;;;;;;5095262;28;20024;-71
2021/12/05 15:34:27;;;;;;;30.08;23.20;;;0.90;92.00;;;;;;5085234;28;20027;-70
2021/12/05 15:36:53;;;;;;;33.20;24.75;;;0.90;91.90;;;;;;5097464;28;20028;-72
2021/12/05 15:39:23;;;;;;;47.25;32.40;;;0.90;91.50;;;;;;5097737;28;20516;-71
2021/12/05 15:41:51;;;;;;;57.72;35.65;;;0.90;91.50;;;;;;5078808;28;20028;-71
2021/12/05 15:44:27;;;;;;;33.95;26.50;;;0.90;91.50;;;;;;5079043;28;20367;-72
2021/12/05 15:47:04;;;;;;;31.65;23.92;;;0.90;91.50;;;;;;5097016;28;20044;-71
2021/12/05 15:49:49;;;;;;;37.33;26.88;;;0.90;91.40;;;;;;5082231;28;20446;-71
2021/12/05 15:52:16;;;;;;;33.15;24.95;;;0.90;91.50;;;;;;5090628;28;20466;-71
2021/12/05 15:54:43;;;;;;;28.80;23.13;;;0.90;91.70;;;;;;5081048;28;20021;-72
2021/12/05 15:57:13;;;;;;;29.23;23.60;;;0.90;91.50;;;;;;5081822;28;20032;-71
2021/12/05 15:59:42;;;;;;;29.13;22.73;;;0.90;91.30;;;;;;5076271;28;20085;-72
2021/12/05 16:02:11;;;;;;;28.55;22.30;;;0.90;91.30;;;;;;5079153;28;20037;-71
2021/12/05 16:04:39;;;;;;;31.48;22.60;;;0.90;91.40;;;;;;5068031;28;20035;-73
2021/12/05 16:07:10;;;;;;;34.13;23.98;;;1.00;91.50;;;;;;5061622;28;20131;-70
2021/12/05 16:09:38;;;;;;;30.88;24.33;;;1.00;91.50;;;;;;5075638;28;20100;-72
2021/12/05 16:12:17;;;;;;;36.45;28.45;;;1.00;91.20;;;;;;5071515;28;20063;-71
2021/12/05 16:14:46;;;;;;;64.30;36.15;;;1.10;91.10;;;;;;5069119;28;20032;-71
2021/12/05 16:17:23;;;;;;;48.28;31.25;;;1.10;91.40;;;;;;5080885;28;20020;-71
2021/12/05 16:20:13;;;;;;;43.92;30.48;;;1.10;91.40;;;;;;5065663;28;20051;-71
2021/12/05 16:23:09;;;;;;;50.83;34.90;;;1.10;91.00;;;;;;5076412;28;20047;-70
2021/12/05 16:25:40;;;;;;;;;;;1.10;91.00;;;;;;5081371;28;20036;-69
2021/12/05 16:28:12;;;;;;;76.60;47.85;;;1.10;90.80;;;;;;5092962;28;19954;-70
2021/12/05 16:30:41;;;;;;;42.55;33.13;;;1.00;91.10;;;;;;5076888;28;20050;-71
2021/12/05 16:33:08;;;;;;;46.22;33.47;;;1.00;91.20;;;;;;5090843;28;20081;-71
2021/12/05 16:35:49;;;;;;;46.53;32.78;;;1.00;91.30;;;;;;5077320;28;20032;-70
2021/12/05 16:38:28;;;;;;;61.17;38.88;;;1.00;91.30;;;;;;5075603;28;20060;-71
2021/12/05 16:41:11;;;;;;;50.45;37.55;;;1.10;91.50;;;;;;5076925;28;20032;-71
2021/12/05 16:43:46;;;;;;;65.40;41.40;;;1.10;91.80;;;;;;5077069;28;20378;-71
2021/12/05 16:46:23;;;;;;;89.88;54.00;;;1.20;91.70;;;;;;5086287;28;20028;-72
2021/12/05 16:48:50;;;;;;;82.38;52.92;;;1.10;91.60;;;;;;5061446;28;20028;-70
2021/12/05 16:51:49;;;;;;;51.50;36.53;;;1.10;91.60;;;;;;5080971;28;20047;-71
2021/12/05 16:54:24;;;;;;;54.28;38.00;;;1.10;91.40;;;;;;5083875;28;20094;-71
2021/12/05 16:56:58;;;;;;;60.70;40.67;;;1.10;91.50;;;;;;5076303;28;20094;-71
2021/12/05 16:59:43;;;;;;;57.35;40.65;;;1.10;91.50;;;;;;5074892;28;20029;-71
2021/12/05 17:02:25;;;;;;;58.38;43.83;;;1.10;91.30;;;;;;5070742;28;20430;-71
2021/12/05 17:05:17;;;;;;;54.65;40.78;;;1.10;91.50;;;;;;5085258;28;20432;-71
2021/12/05 17:07:56;;;;;;;67.38;47.95;;;1.10;91.60;;;;;;5092227;28;20054;-72
2021/12/05 17:10:24;;;;;;;101.75;68.00;;;1.00;91.80;;;;;;5062311;28;20037;-70
2021/12/05 17:12:57;;;;;;;115.97;76.78;;;1.00;92.10;;;;;;5079954;28;20056;-71
2021/12/05 17:15:29;;;;;;;106.68;72.90;;;1.00;92.20;;;;;;5085951;28;20032;-70
2021/12/05 17:18:02;;;;;;;76.78;53.55;;;1.00;92.40;;;;;;5077676;28;20048;-71
2021/12/05 17:20:38;;;;;;;73.68;49.13;;;1.00;92.50;;;;;;5075274;28;20025;-71
2021/12/05 17:23:07;;;;;;;71.40;49.10;;;1.00;92.50;;;;;;5077546;28;20409;-71
2021/12/05 17:25:45;;;;;;;67.72;45.33;;;1.00;92.50;;;;;;5059271;28;20130;-71
2021/12/05 17:28:15;;;;;;;63.53;44.97;;;1.00;92.60;;;;;;5077460;28;20374;-73
2021/12/05 17:30:57;;;;;;;59.70;42.90;;;1.00;92.70;;;;;;5071261;28;20028;-71
2021/12/05 17:33:36;;;;;;;72.38;49.40;;;1.00;92.70;;;;;;5080709;28;20023;-71
2021/12/05 17:36:19;;;;;;;48.75;34.05;;;1.00;92.90;;;;;;5079658;28;20027;-72
2021/12/05 17:38:47;;;;;;;68.57;48.97;;;1.00;92.80;;;;;;5065834;28;20028;-71
2021/12/05 17:41:13;;;;;;;72.55;51.25;;;1.00;93.10;;;;;;5086952;28;20024;-72
2021/12/05 17:43:38;;;;;;;78.07;52.50;;;1.00;93.20;;;;;;5068053;28;20032;-72
2021/12/05 17:46:05;;;;;;;88.68;69.75;;;1.00;93.40;;;;;;5073778;28;20039;-71
2021/12/05 17:48:33;;;;;;;57.95;44.55;;;1.00;93.70;;;;;;5070439;28;20025;-71
2021/12/05 17:51:03;;;;;;;53.35;41.22;;;1.00;93.70;;;;;;5068389;28;20025;-72
2021/12/05 17:53:32;;;;;;;61.72;45.53;;;1.10;93.70;;;;;;5058788;28;20079;-71
2021/12/05 17:56:08;;;;;;;64.60;46.72;;;1.10;93.60;;;;;;5092668;28;20024;-72
2021/12/05 18:03:55;;;;;;;70.65;51.05;;;1.10;93.50;;;;;;5100769;28;20035;-71
2021/12/05 18:06:22;;;;;;;82.90;59.03;;;1.10;93.60;;;;;;5053801;28;20036;-70
2021/12/05 18:08:48;;;;;;;98.25;68.78;;;1.10;93.70;;;;;;5066267;28;20056;-72